sensor_id;sensor_type;location;lat;lon;timestamp;pressure;altitude;pressure_sealevel;temperature;humidity
12666;BME280;58531;59.050;17.416;2023-04-25T00:00:21;99523.75;;;3.46;100.00
12666;BME280;58531;59.050;17.416;2023-04-25T00:02:48;99532.41;;;3.46;100.00
12666;BME280;58531;59.050;17.416;2023-04-25T00:05:15;99536.19;;;3.45;100.00
12666;BME280;58531;59.050;17.416;2023-04-25T00:07:42;99529.75;;;3.46;100.00
12666;BME280;58531;59.050;17.416;2023-04-25T00:10:09;99532.41;;;3.46;100.00
12666;BME280;58531;59.050;17.416;2023-04-25T00:12:37;99524.47;;;3.46;100.00
12666;BME280;58531;59.050;17.416;2023-04-25T00:15:05;99521.44;;;3.47;100.00
12666;BME280;58531;59.050;17.416;2023-04-25T00:17:33;99529.75;;;3.46;100.00
12666;BME280;58531;59.050;17.416;2023-04-25T00:20:01;99516.22;;;3.44;100.00
12666;BME280;58531;59.050;17.416;2023-04-25T00:22:33;99532.06;;;3.44;100.00
12666;BME280;58531;59.050;17.416;2023-04-25T00:25:03;99518.88;;;3.44;100.00
12666;BME280;58531;59.050;17.416;2023-04-25T00:27:29;99518.88;;;3.44;100.00
12666;BME280;58531;59.050;17.416;2023-04-25T00:29:56;99504.28;;;3.40;100.00
12666;BME280;58531;59.050;17.416;2023-04-25T00:32:23;99508.81;;;3.39;100.00
12666;BME280;58531;59.050;17.416;2023-04-25T00:34:51;99505.84;;;3.37;100.00
12666;BME280;58531;59.050;17.416;2023-04-25T00:37:18;99505.84;;;3.37;100.00
12666;BME280;58531;59.050;17.416;2023-04-25T00:39:45;99508.09;;;3.39;100.00
12666;BME280;58531;59.050;17.416;2023-04-25T00:42:12;99503.19;;;3.37;100.00
12666;BME280;58531;59.050;17.416;2023-04-25T00:44:41;99505.84;;;3.37;100.00
12666;BME280;58531;59.050;17.416;2023-04-25T00:47:10;99494.56;;;3.37;100.00
12666;BME280;58531;59.050;17.416;2023-04-25T00:49:37;99493.41;;;3.38;100.00
12666;BME280;58531;59.050;17.416;2023-04-25T00:52:06;99485.56;;;3.34;100.00
12666;BME280;58531;59.050;17.416;2023-04-25T00:54:33;99480.28;;;3.34;100.00
12666;BME280;58531;59.050;17.416;2023-04-25T00:56:59;99472.69;;;3.36;100.00
12666;BME280;58531;59.050;17.416;2023-04-25T00:59:28;99467.09;;;3.34;100.00
12666;BME280;58531;59.050;17.416;2023-04-25T01:01:56;99471.22;;;3.35;100.00
12666;BME280;58531;59.050;17.416;2023-04-25T01:04:23;99467.50;;;3.33;100.00
12666;BME280;58531;59.050;17.416;2023-04-25T01:06:50;99464.88;;;3.33;100.00
12666;BME280;58531;59.050;17.416;2023-04-25T01:09:19;99455.38;;;3.35;100.00
12666;BME280;58531;59.050;17.416;2023-04-25T01:11:46;99464.38;;;3.38;100.00
12666;BME280;58531;59.050;17.416;2023-04-25T01:14:13;99464.78;;;3.36;100.00
12666;BME280;58531;59.050;17.416;2023-04-25T01:16:40;99468.16;;;3.37;100.00
12666;BME280;58531;59.050;17.416;2023-04-25T01:19:09;99458.34;;;3.37;100.00
12666;BME280;58531;59.050;17.416;2023-04-25T01:21:39;99474.94;;;3.38;100.00
12666;BME280;58531;59.050;17.416;2023-04-25T01:24:06;99476.81;;;3.37;100.00
12666;BME280;58531;59.050;17.416;2023-04-25T01:26:33;99471.88;;;3.39;100.00
12666;BME280;58531;59.050;17.416;2023-04-25T01:29:01;99475.66;;;3.38;100.00
12666;BME280;58531;59.050;17.416;2023-04-25T01:31:30;99464.28;;;3.41;100.00
12666;BME280;58531;59.050;17.416;2023-04-25T01:33:58;99465.09;;;3.38;100.00
12666;BME280;58531;59.050;17.416;2023-04-25T01:36:25;99454.56;;;3.38;100.00
12666;BME280;58531;59.050;17.416;2023-04-25T01:38:53;99440.63;;;3.38;100.00
12666;BME280;58531;59.050;17.416;2023-04-25T01:41:21;99437.25;;;3.37;100.00
12666;BME280;58531;59.050;17.416;2023-04-25T01:43:48;99432.38;;;3.36;100.00
12666;BME280;58531;59.050;17.416;2023-04-25T01:46:16;99431.22;;;3.37;100.00
12666;BME280;58531;59.050;17.416;2023-04-25T01:48:43;99422.22;;;3.34;100.00
12666;BME280;58531;59.050;17.416;2023-04-25T01:51:10;99417.38;;;3.33;100.00
12666;BME280;58531;59.050;17.416;2023-04-25T01:53:37;99418.53;;;3.32;100.00
12666;BME280;58531;59.050;17.416;2023-04-25T01:56:06;99411.88;;;3.27;100.00
12666;BME280;58531;59.050;17.416;2023-04-25T01:58:33;99401.72;;;3.26;100.00
12666;BME280;58531;59.050;17.416;2023-04-25T02:01:00;99398.16;;;3.32;100.00
12666;BME280;58531;59.050;17.416;2023-04-25T02:03:27;99396.78;;;3.28;100.00
12666;BME280;58531;59.050;17.416;2023-04-25T02:05:54;99408.09;;;3.28;100.00
12666;BME280;58531;59.050;17.416;2023-04-25T02:08:20;99404.28;;;3.29;100.00
12666;BME280;58531;59.050;17.416;2023-04-25T02:10:47;99399.84;;;3.26;100.00
12666;BME280;58531;59.050;17.416;2023-04-25T02:13:15;99393.09;;;3.25;100.00
12666;BME280;58531;59.050;17.416;2023-04-25T02:15:42;99396.53;;;3.22;100.00
12666;BME280;58531;59.050;17.416;2023-04-25T02:18:09;99393.16;;;3.22;100.00
12666;BME280;58531;59.050;17.416;2023-04-25T02:20:36;99391.28;;;3.22;100.00
12666;BME280;58531;59.050;17.416;2023-04-25T02:23:03;99389.38;;;3.23;100.00
12666;BME280;58531;59.050;17.416;2023-04-25T02:25:30;99394.25;;;3.24;100.00
12666;BME280;58531;59.050;17.416;2023-04-25T02:27:57;99387.81;;;3.25;100.00
12666;BME280;58531;59.050;17.416;2023-04-25T02:30:25;99389.28;;;3.26;100.00
12666;BME280;58531;59.050;17.416;2023-04-25T02:32:52;99381.44;;;3.23;100.00
12666;BME280;58531;59.050;17.416;2023-04-25T02:35:19;99382.94;;;3.24;100.00
12666;BME280;58531;59.050;17.416;2023-04-25T02:37:46;99381.06;;;3.24;100.00
12666;BME280;58531;59.050;17.416;2023-04-25T02:40:13;99390.44;;;3.25;100.00
12666;BME280;58531;59.050;17.416;2023-04-25T02:42:40;99386.66;;;3.26;100.00
12666;BME280;58531;59.050;17.416;2023-04-25T02:45:07;99388.53;;;3.26;100.00
12666;BME280;58531;59.050;17.416;2023-04-25T02:47:36;99387.81;;;3.25;100.00
12666;BME280;58531;59.050;17.416;2023-04-25T02:50:03;99381.06;;;3.24;100.00
12666;BME280;58531;59.050;17.416;2023-04-25T02:52:30;99381.06;;;3.24;100.00
12666;BME280;58531;59.050;17.416;2023-04-25T02:54:57;99372.69;;;3.26;100.00
12666;BME280;58531;59.050;17.416;2023-04-25T02:57:24;99373.47;;;3.26;100.00
12666;BME280;58531;59.050;17.416;2023-04-25T02:59:51;99372.81;;;3.22;100.00
12666;BME280;58531;59.050;17.416;2023-04-25T03:02:17;99375.78;;;3.24;100.00
12666;BME280;58531;59.050;17.416;2023-04-25T03:04:45;99370.50;;;3.24;100.00
12666;BME280;58531;59.050;17.416;2023-04-25T03:07:13;99366.03;;;3.21;100.00
12666;BME280;58531;59.050;17.416;2023-04-25T03:09:40;99369.00;;;3.23;100.00
12666;BME280;58531;59.050;17.416;2023-04-25T03:12:06;99362.59;;;3.24;100.00
12666;BME280;58531;59.050;17.416;2023-04-25T03:14:33;99353.59;;;3.22;100.00
12666;BME280;58531;59.050;17.416;2023-04-25T03:17:00;99347.91;;;3.23;100.00
12666;BME280;58531;59.050;17.416;2023-04-25T03:19:27;99342.31;;;3.21;100.00
12666;BME280;58531;59.050;17.416;2023-04-25T03:21:55;99348.75;;;3.20;100.00
12666;BME280;58531;59.050;17.416;2023-04-25T03:24:22;99345.66;;;3.22;100.00
12666;BME280;58531;59.050;17.416;2023-04-25T03:26:49;99351.69;;;3.22;100.00
12666;BME280;58531;59.050;17.416;2023-04-25T03:29:15;99345.66;;;3.22;100.00
12666;BME280;58531;59.050;17.416;2023-04-25T03:31:42;99346.81;;;3.21;100.00
12666;BME280;58531;59.050;17.416;2023-04-25T03:34:09;99341.97;;;3.19;100.00
12666;BME280;58531;59.050;17.416;2023-04-25T03:36:36;99326.56;;;3.18;100.00
12666;BME280;58531;59.050;17.416;2023-04-25T03:39:04;99317.50;;;3.19;100.00
12666;BME280;58531;59.050;17.416;2023-04-25T03:41:31;99327.72;;;3.17;100.00
12666;BME280;58531;59.050;17.416;2023-04-25T03:43:58;99308.59;;;3.13;100.00
12666;BME280;58531;59.050;17.416;2023-04-25T03:46:25;99310.84;;;3.14;100.00
12666;BME280;58531;59.050;17.416;2023-04-25T03:48:51;99312.72;;;3.14;100.00
12666;BME280;58531;59.050;17.416;2023-04-25T03:51:18;99301.13;;;3.11;100.00
12666;BME280;58531;59.050;17.416;2023-04-25T03:53:45;99312.06;;;3.10;100.00
12666;BME280;58531;59.050;17.416;2023-04-25T03:56:13;99303.75;;;3.11;100.00
12666;BME280;58531;59.050;17.416;2023-04-25T03:58:40;99298.88;;;3.10;100.00
12666;BME280;58531;59.050;17.416;2023-04-25T04:01:07;99303.41;;;3.09;100.00
12666;BME280;58531;59.050;17.416;2023-04-25T04:03:34;99295.41;;;3.13;100.00
12666;BME280;58531;59.050;17.416;2023-04-25T04:06:01;99303.41;;;3.09;100.00
12666;BME280;58531;59.050;17.416;2023-04-25T04:08:29;99293.19;;;3.11;100.00
12666;BME280;58531;59.050;17.416;2023-04-25T04:10:56;99298.53;;;3.08;100.00
12666;BME280;58531;59.050;17.416;2023-04-25T04:13:26;99292.97;;;3.06;100.00
12666;BME280;58531;59.050;17.416;2023-04-25T04:15:53;99309.75;;;3.12;100.00
12666;BME280;58531;59.050;17.416;2023-04-25T04:18:21;99301.00;;;3.15;100.00
12666;BME280;58531;59.050;17.416;2023-04-25T04:20:47;99294.56;;;3.16;100.00
12666;BME280;58531;59.050;17.416;2023-04-25T04:23:15;99294.69;;;3.12;100.00
12666;BME280;58531;59.050;17.416;2023-04-25T04:25:41;99297.00;;;3.10;100.00
12666;BME280;58531;59.050;17.416;2023-04-25T04:28:08;99298.47;;;3.11;100.00
12666;BME280;58531;59.050;17.416;2023-04-25T04:30:37;99289.81;;;3.11;100.00
12666;BME280;58531;59.050;17.416;2023-04-25T04:33:04;99282.72;;;3.08;100.00
12666;BME280;58531;59.050;17.416;2023-04-25T04:35:32;99276.72;;;3.07;100.00
12666;BME280;58531;59.050;17.416;2023-04-25T04:37:59;99282.66;;;3.11;100.00
12666;BME280;58531;59.050;17.416;2023-04-25T04:40:26;99284.97;;;3.09;100.00
12666;BME280;58531;59.050;17.416;2023-04-25T04:42:53;99288.66;;;3.12;100.00
12666;BME280;58531;59.050;17.416;2023-04-25T04:45:21;99290.97;;;3.10;100.00
12666;BME280;58531;59.050;17.416;2023-04-25T04:47:50;99297.22;;;3.16;100.00
12666;BME280;58531;59.050;17.416;2023-04-25T04:50:17;99305.06;;;3.19;100.00
12666;BME280;58531;59.050;17.416;2023-04-25T04:52:44;99309.91;;;3.21;100.00
12666;BME280;58531;59.050;17.416;2023-04-25T04:55:11;99293.84;;;3.15;100.00
12666;BME280;58531;59.050;17.416;2023-04-25T04:57:38;99302.41;;;3.19;100.00
12666;BME280;58531;59.050;17.416;2023-04-25T05:00:05;99309.06;;;3.24;100.00
12666;BME280;58531;59.050;17.416;2023-04-25T05:02:37;99308.22;;;3.27;100.00
12666;BME280;58531;59.050;17.416;2023-04-25T05:05:05;99300.44;;;3.23;100.00
12666;BME280;58531;59.050;17.416;2023-04-25T05:07:33;99303.47;;;3.22;100.00
12666;BME280;58531;59.050;17.416;2023-04-25T05:10:00;99304.72;;;3.17;100.00
12666;BME280;58531;59.050;17.416;2023-04-25T05:12:26;99292.69;;;3.16;100.00
12666;BME280;58531;59.050;17.416;2023-04-25T05:14:53;99291.53;;;3.17;100.00
12666;BME280;58531;59.050;17.416;2023-04-25T05:17:20;99285.84;;;3.19;100.00
12666;BME280;58531;59.050;17.416;2023-04-25T05:19:47;99292.59;;;3.20;100.00
12666;BME280;58531;59.050;17.416;2023-04-25T05:22:15;99296.63;;;3.24;100.00
12666;BME280;58531;59.050;17.416;2023-04-25T05:24:42;99304.03;;;3.29;100.00
12666;BME280;58531;59.050;17.416;2023-04-25T05:27:09;99301.59;;;3.22;100.00
12666;BME280;58531;59.050;17.416;2023-04-25T05:29:36;99296.97;;;3.26;100.00
12666;BME280;58531;59.050;17.416;2023-04-25T05:32:05;99296.75;;;3.33;100.00
12666;BME280;58531;59.050;17.416;2023-04-25T05:34:33;99299.31;;;3.37;100.00
12666;BME280;58531;59.050;17.416;2023-04-25T05:36:59;99302.34;;;3.35;100.00
12666;BME280;58531;59.050;17.416;2023-04-25T05:39:28;99300.53;;;3.32;100.00
12666;BME280;58531;59.050;17.416;2023-04-25T05:41:55;99294.69;;;3.41;100.00
12666;BME280;58531;59.050;17.416;2023-04-25T05:44:22;99293.59;;;3.38;100.00
12666;BME280;58531;59.050;17.416;2023-04-25T05:46:48;99296.38;;;3.47;100.00
12666;BME280;58531;59.050;17.416;2023-04-25T05:49:15;99302.63;;;3.53;100.00
12666;BME280;58531;59.050;17.416;2023-04-25T05:51:42;99299.34;;;3.49;100.00
12666;BME280;58531;59.050;17.416;2023-04-25T05:54:09;99306.34;;;3.55;100.00
12666;BME280;58531;59.050;17.416;2023-04-25T05:56:37;99313.00;;;3.60;100.00
12666;BME280;58531;59.050;17.416;2023-04-25T05:59:04;99319.75;;;3.61;100.00
12666;BME280;58531;59.050;17.416;2023-04-25T06:01:31;99314.16;;;3.59;100.00
12666;BME280;58531;59.050;17.416;2023-04-25T06:03:58;99310.47;;;3.69;100.00
12666;BME280;58531;59.050;17.416;2023-04-25T06:06:25;99314.19;;;3.84;100.00
12666;BME280;58531;59.050;17.416;2023-04-25T06:08:52;99309.47;;;3.91;100.00
12666;BME280;58531;59.050;17.416;2023-04-25T06:11:19;99321.72;;;3.98;100.00
12666;BME280;58531;59.050;17.416;2023-04-25T06:13:47;99318.03;;;4.08;100.00
12666;BME280;58531;59.050;17.416;2023-04-25T06:16:14;99322.03;;;4.00;100.00
12666;BME280;58531;59.050;17.416;2023-04-25T06:18:40;99326.16;;;4.01;100.00
12666;BME280;58531;59.050;17.416;2023-04-25T06:21:07;99321.50;;;4.05;100.00
12666;BME280;58531;59.050;17.416;2023-04-25T06:23:34;99324.78;;;4.21;100.00
12666;BME280;58531;59.050;17.416;2023-04-25T06:26:01;99331.88;;;4.37;100.00
12666;BME280;58531;59.050;17.416;2023-04-25T06:28:28;99333.13;;;4.45;100.00
12666;BME280;58531;59.050;17.416;2023-04-25T06:30:56;99329.44;;;4.42;100.00
12666;BME280;58531;59.050;17.416;2023-04-25T06:33:23;99331.03;;;4.40;100.00
12666;BME280;58531;59.050;17.416;2023-04-25T06:35:50;99323.72;;;4.44;100.00
12666;BME280;58531;59.050;17.416;2023-04-25T06:38:17;99331.25;;;4.45;100.00
12666;BME280;58531;59.050;17.416;2023-04-25T06:40:44;99334.09;;;4.38;100.00
12666;BME280;58531;59.050;17.416;2023-04-25T06:43:11;99333.91;;;4.33;100.00
12666;BME280;58531;59.050;17.416;2023-04-25T06:45:37;99340.97;;;4.36;100.00
12666;BME280;58531;59.050;17.416;2023-04-25T06:48:06;99347.84;;;4.33;100.00
12666;BME280;58531;59.050;17.416;2023-04-25T06:50:33;99352.91;;;4.40;100.00
12666;BME280;58531;59.050;17.416;2023-04-25T06:53:00;99349.63;;;4.49;100.00
12666;BME280;58531;59.050;17.416;2023-04-25T06:55:27;99340.75;;;4.55;100.00
12666;BME280;58531;59.050;17.416;2023-04-25T06:57:55;99353.13;;;4.58;100.00
12666;BME280;58531;59.050;17.416;2023-04-25T07:00:22;99346.25;;;4.48;100.00
12666;BME280;58531;59.050;17.416;2023-04-25T07:02:48;99343.72;;;4.45;100.00
12666;BME280;58531;59.050;17.416;2023-04-25T07:05:17;99347.31;;;4.51;100.00
12666;BME280;58531;59.050;17.416;2023-04-25T07:07:44;99354.38;;;4.66;100.00
12666;BME280;58531;59.050;17.416;2023-04-25T07:10:10;99343.00;;;4.90;100.00
12666;BME280;58531;59.050;17.416;2023-04-25T07:12:37;99347.94;;;5.13;100.00
12666;BME280;58531;59.050;17.416;2023-04-25T07:15:05;99347.66;;;5.33;100.00
12666;BME280;58531;59.050;17.416;2023-04-25T07:17:35;99347.66;;;5.54;100.00
12666;BME280;58531;59.050;17.416;2023-04-25T07:20:02;99346.75;;;5.70;100.00
12666;BME280;58531;59.050;17.416;2023-04-25T07:22:32;99343.63;;;5.83;100.00
12666;BME280;58531;59.050;17.416;2023-04-25T07:25:00;99340.56;;;5.85;100.00
12666;BME280;58531;59.050;17.416;2023-04-25T07:27:26;99340.28;;;5.92;100.00
12666;BME280;58531;59.050;17.416;2023-04-25T07:29:53;99344.53;;;5.68;100.00
12666;BME280;58531;59.050;17.416;2023-04-25T07:32:20;99337.31;;;5.47;100.00
12666;BME280;58531;59.050;17.416;2023-04-25T07:34:47;99344.31;;;5.41;100.00
12666;BME280;58531;59.050;17.416;2023-04-25T07:37:14;99341.69;;;5.63;100.00
12666;BME280;58531;59.050;17.416;2023-04-25T07:39:42;99346.41;;;5.80;100.00
12666;BME280;58531;59.050;17.416;2023-04-25T07:42:11;99349.41;;;5.91;100.00
12666;BME280;58531;59.050;17.416;2023-04-25T07:44:38;99343.22;;;5.73;100.00
12666;BME280;58531;59.050;17.416;2023-04-25T07:47:05;99347.19;;;5.68;100.00
12666;BME280;58531;59.050;17.416;2023-04-25T07:49:33;99347.44;;;5.61;100.00
12666;BME280;58531;59.050;17.416;2023-04-25T07:52:01;99360.84;;;5.67;100.00
12666;BME280;58531;59.050;17.416;2023-04-25T07:54:28;99362.72;;;5.79;100.00
12666;BME280;58531;59.050;17.416;2023-04-25T07:56:56;99364.78;;;5.62;100.00
12666;BME280;58531;59.050;17.416;2023-04-25T07:59:23;99367.44;;;5.62;100.00
12666;BME280;58531;59.050;17.416;2023-04-25T08:01:50;99366.66;;;5.74;100.00
12666;BME280;58531;59.050;17.416;2023-04-25T08:04:17;99371.72;;;5.81;100.00
12666;BME280;58531;59.050;17.416;2023-04-25T08:06:44;99364.25;;;5.88;100.00
12666;BME280;58531;59.050;17.416;2023-04-25T08:09:11;99367.25;;;6.21;100.00
12666;BME280;58531;59.050;17.416;2023-04-25T08:11:38;99370.25;;;6.41;100.00
12666;BME280;58531;59.050;17.416;2023-04-25T08:14:06;99377.34;;;6.13;100.00
12666;BME280;58531;59.050;17.416;2023-04-25T08:16:33;99372.31;;;6.06;100.00
12666;BME280;58531;59.050;17.416;2023-04-25T08:19:00;99377.13;;;6.29;100.00
12666;BME280;58531;59.050;17.416;2023-04-25T08:21:27;99380.66;;;6.26;100.00
12666;BME280;58531;59.050;17.416;2023-04-25T08:23:54;99382.81;;;6.49;100.00
12666;BME280;58531;59.050;17.416;2023-04-25T08:26:21;99381.53;;;6.63;100.00
12666;BME280;58531;59.050;17.416;2023-04-25T08:28:47;99381.91;;;6.83;100.00
12666;BME280;58531;59.050;17.416;2023-04-25T08:31:16;99382.22;;;6.85;100.00
12666;BME280;58531;59.050;17.416;2023-04-25T08:33:43;99381.34;;;6.88;100.00
12666;BME280;58531;59.050;17.416;2023-04-25T08:36:10;99385.47;;;6.97;100.00
12666;BME280;58531;59.050;17.416;2023-04-25T08:38:37;99376.66;;;7.09;100.00
12666;BME280;58531;59.050;17.416;2023-04-25T08:41:05;99389.78;;;7.22;100.00
12666;BME280;58531;59.050;17.416;2023-04-25T08:43:34;99383.31;;;7.32;100.00
12666;BME280;58531;59.050;17.416;2023-04-25T08:46:01;99376.53;;;7.49;100.00
12666;BME280;58531;59.050;17.416;2023-04-25T08:48:32;99379.44;;;7.78;100.00
12666;BME280;58531;59.050;17.416;2023-04-25T08:51:01;99382.56;;;7.67;100.00
12666;BME280;58531;59.050;17.416;2023-04-25T08:53:30;99386.09;;;7.73;100.00
12666;BME280;58531;59.050;17.416;2023-04-25T08:55:59;99394.50;;;7.81;100.00
12666;BME280;58531;59.050;17.416;2023-04-25T08:58:27;99384.63;;;7.72;100.00
12666;BME280;58531;59.050;17.416;2023-04-25T09:00:54;99379.56;;;7.92;100.00
12666;BME280;58531;59.050;17.416;2023-04-25T09:03:21;99379.44;;;8.46;100.00
12666;BME280;58531;59.050;17.416;2023-04-25T09:05:49;99369.53;;;8.55;100.00
12666;BME280;58531;59.050;17.416;2023-04-25T09:08:18;99379.22;;;8.26;100.00
12666;BME280;58531;59.050;17.416;2023-04-25T09:10:44;99390.19;;;8.19;100.00
12666;BME280;58531;59.050;17.416;2023-04-25T09:13:13;99395.38;;;8.55;100.00
12666;BME280;58531;59.050;17.416;2023-04-25T09:15:48;99399.69;;;8.85;100.00
12666;BME280;58531;59.050;17.416;2023-04-25T09:18:22;99405.50;;;8.98;97.80
12666;BME280;58531;59.050;17.416;2023-04-25T09:20:51;99411.91;;;8.91;98.03
12666;BME280;58531;59.050;17.416;2023-04-25T09:23:19;99406.19;;;8.84;100.00
12666;BME280;58531;59.050;17.416;2023-04-25T09:25:47;99414.88;;;9.17;100.00
12666;BME280;58531;59.050;17.416;2023-04-25T09:28:14;99413.78;;;9.23;100.00
12666;BME280;58531;59.050;17.416;2023-04-25T09:30:41;99423.38;;;9.30;100.00
12666;BME280;58531;59.050;17.416;2023-04-25T09:33:10;99423.78;;;9.14;100.00
12666;BME280;58531;59.050;17.416;2023-04-25T09:35:38;99428.28;;;8.99;99.58
12666;BME280;58531;59.050;17.416;2023-04-25T09:38:11;99427.63;;;9.13;100.00
12666;BME280;58531;59.050;17.416;2023-04-25T09:40:42;99436.41;;;9.04;100.00
12666;BME280;58531;59.050;17.416;2023-04-25T09:43:09;99440.03;;;8.92;100.00
12666;BME280;58531;59.050;17.416;2023-04-25T09:45:43;99438.34;;;9.27;100.00
12666;BME280;58531;59.050;17.416;2023-04-25T09:48:11;99435.59;;;9.59;100.00
12666;BME280;58531;59.050;17.416;2023-04-25T09:50:38;99436.66;;;9.38;99.65
12666;BME280;58531;59.050;17.416;2023-04-25T09:53:06;99434.56;;;9.42;94.92
12666;BME280;58531;59.050;17.416;2023-04-25T09:55:34;99424.53;;;9.75;97.14
12666;BME280;58531;59.050;17.416;2023-04-25T09:58:04;99429.28;;;9.71;96.26
12666;BME280;58531;59.050;17.416;2023-04-25T10:00:32;99429.34;;;10.00;92.68
12666;BME280;58531;59.050;17.416;2023-04-25T10:03:01;99432.00;;;10.00;93.19
12666;BME280;58531;59.050;17.416;2023-04-25T10:05:30;99434.19;;;9.49;94.02
12666;BME280;58531;59.050;17.416;2023-04-25T10:07:59;99435.75;;;9.79;93.08
12666;BME280;58531;59.050;17.416;2023-04-25T10:10:29;99424.69;;;10.10;92.42
12666;BME280;58531;59.050;17.416;2023-04-25T10:13:03;99428.81;;;10.11;92.07
12666;BME280;58531;59.050;17.416;2023-04-25T10:15:33;99432.50;;;10.42;90.68
12666;BME280;58531;59.050;17.416;2023-04-25T10:18:01;99429.53;;;10.11;94.26
12666;BME280;58531;59.050;17.416;2023-04-25T10:20:29;99436.91;;;10.16;93.60
12666;BME280;58531;59.050;17.416;2023-04-25T10:23:02;99452.56;;;10.23;94.05
12666;BME280;58531;59.050;17.416;2023-04-25T10:25:30;99450.09;;;9.96;94.20
12666;BME280;58531;59.050;17.416;2023-04-25T10:27:59;99449.06;;;9.41;92.61
12666;BME280;58531;59.050;17.416;2023-04-25T10:30:27;99450.88;;;9.36;95.39
12666;BME280;58531;59.050;17.416;2023-04-25T10:32:55;99459.22;;;9.52;95.00
12666;BME280;58531;59.050;17.416;2023-04-25T10:35:25;99458.59;;;9.34;96.05
12666;BME280;58531;59.050;17.416;2023-04-25T10:38:03;99454.88;;;9.08;98.12
12666;BME280;58531;59.050;17.416;2023-04-25T10:40:30;99461.88;;;8.64;100.00
12666;BME280;58531;59.050;17.416;2023-04-25T10:43:34;99460.97;;;8.67;100.00
12666;BME280;58531;59.050;17.416;2023-04-25T10:46:13;99465.81;;;8.77;100.00
12666;BME280;58531;59.050;17.416;2023-04-25T10:48:45;99464.56;;;8.55;100.00
12666;BME280;58531;59.050;17.416;2023-04-25T10:51:17;99459.03;;;8.26;100.00
12666;BME280;58531;59.050;17.416;2023-04-25T10:53:45;99460.19;;;8.34;100.00
12666;BME280;58531;59.050;17.416;2023-04-25T10:56:16;99454.28;;;8.12;100.00
12666;BME280;58531;59.050;17.416;2023-04-25T10:58:44;99460.34;;;8.21;100.00
12666;BME280;58531;59.050;17.416;2023-04-25T11:01:13;99459.31;;;8.19;100.00
12666;BME280;58531;59.050;17.416;2023-04-25T11:03:41;99455.94;;;8.10;100.00
12666;BME280;58531;59.050;17.416;2023-04-25T11:06:17;99458.28;;;8.17;100.00
12666;BME280;58531;59.050;17.416;2023-04-25T11:08:49;99455.31;;;8.23;100.00
12666;BME280;58531;59.050;17.416;2023-04-25T11:11:16;99461.81;;;8.31;100.00
12666;BME280;58531;59.050;17.416;2023-04-25T11:13:44;99477.75;;;8.40;100.00
12666;BME280;58531;59.050;17.416;2023-04-25T11:16:10;99473.16;;;8.50;100.00
12666;BME280;58531;59.050;17.416;2023-04-25T11:18:40;99465.84;;;8.68;100.00
12666;BME280;58531;59.050;17.416;2023-04-25T11:21:07;99455.41;;;8.88;100.00
12666;BME280;58531;59.050;17.416;2023-04-25T11:23:34;99457.72;;;9.04;100.00
12666;BME280;58531;59.050;17.416;2023-04-25T11:26:02;99460.03;;;8.88;100.00
12666;BME280;58531;59.050;17.416;2023-04-25T11:28:29;99457.19;;;8.91;100.00
12666;BME280;58531;59.050;17.416;2023-04-25T11:30:56;99456.50;;;8.82;100.00
12666;BME280;58531;59.050;17.416;2023-04-25T11:33:23;99454.00;;;9.02;100.00
12666;BME280;58531;59.050;17.416;2023-04-25T11:35:53;99457.53;;;9.08;100.00
12666;BME280;58531;59.050;17.416;2023-04-25T11:38:20;99460.25;;;8.99;100.00
12666;BME280;58531;59.050;17.416;2023-04-25T11:40:49;99460.81;;;9.03;100.00
12666;BME280;58531;59.050;17.416;2023-04-25T11:43:17;99457.75;;;8.95;100.00
12666;BME280;58531;59.050;17.416;2023-04-25T11:45:46;99463.94;;;9.01;100.00
12666;BME280;58531;59.050;17.416;2023-04-25T11:48:14;99456.53;;;9.29;100.00
12666;BME280;58531;59.050;17.416;2023-04-25T11:50:41;99457.75;;;9.28;100.00
12666;BME280;58531;59.050;17.416;2023-04-25T11:53:09;99452.63;;;9.62;100.00
12666;BME280;58531;59.050;17.416;2023-04-25T11:55:36;99460.63;;;9.62;98.70
12666;BME280;58531;59.050;17.416;2023-04-25T11:58:04;99446.00;;;9.34;98.86
12666;BME280;58531;59.050;17.416;2023-04-25T12:00:31;99448.84;;;9.31;98.43
12666;BME280;58531;59.050;17.416;2023-04-25T12:02:58;99445.38;;;9.77;99.71
12666;BME280;58531;59.050;17.416;2023-04-25T12:05:28;99452.88;;;9.87;95.72
12666;BME280;58531;59.050;17.416;2023-04-25T12:07:55;99447.66;;;10.22;98.76
12666;BME280;58531;59.050;17.416;2023-04-25T12:10:24;99462.13;;;10.44;95.43
12666;BME280;58531;59.050;17.416;2023-04-25T12:12:52;99459.53;;;10.64;91.81
12666;BME280;58531;59.050;17.416;2023-04-25T12:15:23;99456.13;;;10.06;91.20
12666;BME280;58531;59.050;17.416;2023-04-25T12:17:51;99452.34;;;10.12;95.23
12666;BME280;58531;59.050;17.416;2023-04-25T12:20:21;99459.19;;;10.42;95.37
12666;BME280;58531;59.050;17.416;2023-04-25T12:22:49;99461.38;;;10.58;92.37
12666;BME280;58531;59.050;17.416;2023-04-25T12:25:36;99467.91;;;10.57;92.62
12666;BME280;58531;59.050;17.416;2023-04-25T12:28:13;99461.38;;;10.58;92.76
12666;BME280;58531;59.050;17.416;2023-04-25T12:30:53;99457.31;;;10.48;96.23
12666;BME280;58531;59.050;17.416;2023-04-25T12:33:20;99461.41;;;10.29;95.59
12666;BME280;58531;59.050;17.416;2023-04-25T12:35:48;99461.47;;;10.06;95.41
12666;BME280;58531;59.050;17.416;2023-04-25T12:38:21;99458.91;;;9.88;97.65
12666;BME280;58531;59.050;17.416;2023-04-25T12:40:49;99458.19;;;9.87;100.00
12666;BME280;58531;59.050;17.416;2023-04-25T12:43:16;99453.03;;;9.84;98.56
12666;BME280;58531;59.050;17.416;2023-04-25T12:45:43;99448.72;;;9.86;99.16
12666;BME280;58531;59.050;17.416;2023-04-25T12:48:10;99445.00;;;9.69;99.31
12666;BME280;58531;59.050;17.416;2023-04-25T12:50:37;99454.09;;;9.63;100.00
12666;BME280;58531;59.050;17.416;2023-04-25T12:53:04;99459.44;;;9.39;100.00